Flight Track Log - Related Links

Times and Time Zones

All times are in EST time to prevent confusion due to time zone crossing. See the UPS3706 flight status page for this flight to view local times or setup timezone preferences in your user account.

Time Position Orientation Groundspeed Altitude Reporting Facility
EST Latitude Longitude Course Direction KTS MPH feet Rate Location/Type
Tue 03:34:05 PM 38.2181 -85.9450 215° Southwest 297 342 11,300  Level Indianapolis Center
Tue 03:35:06 PM 38.1150 -86.0364 215° Southwest 373 429 14,100 2,732 Climbing Indianapolis Center
Tue 03:36:08 PM 38.0269 -86.1192 217° Southwest 389 448 16,900 2,390 Climbing Indianapolis Center
Tue 03:37:09 PM 37.9161 -86.1639 198° South 420 483 19,000 2,146 Climbing Indianapolis Center
Tue 03:38:11 PM 37.7972 -86.1975 193° South 431 496 21,300 2,195 Climbing Indianapolis Center
Tue 03:39:12 PM 37.6736 -86.2342 193° South 437 503 23,500 1,854 Climbing Indianapolis Center
Tue 03:40:14 PM 37.5497 -86.2700 193° South 448 516 25,100 1,610 Climbing Indianapolis Center
Tue 03:41:15 PM 37.4231 -86.3053 192° South 458 527 26,800 1,756 Climbing Indianapolis Center
Tue 03:42:17 PM 37.2950 -86.3414 193° South 463 533 28,700 1,854 Climbing Indianapolis Center
Tue 03:43:18 PM 37.1686 -86.3772 193° South 461 531 30,600 1,805 Climbing Indianapolis Center
Tue 03:44:20 PM 37.0444 -86.4067 191° South 452 520 32,400 1,171 Climbing Indianapolis Center
Tue 03:45:21 PM 36.9136 -86.3992 177° South 466 536 33,000 293 Climbing Indianapolis Center
Tue 03:46:23 PM 36.7825 -86.3511 164° South 486 559 33,000  Level Indianapolis Center
Tue 03:47:24 PM 36.6561 -86.2719 153° Southeast 501 577 33,000  Level Indianapolis Center
Tue 03:48:26 PM 36.5281 -86.1897 153° Southeast 504 580 33,000  Level Memphis Center
Tue 03:49:27 PM 36.4022 -86.1114 153° Southeast 502 578 33,000  Level Indianapolis Center
Tue 03:50:29 PM 36.2764 -86.0311 153° Southeast 502 578 33,000 49 Level Indianapolis Center
Tue 03:51:30 PM 36.1494 -85.9528 154° Southeast 504 580 33,100  Climbing Indianapolis Center
Tue 03:52:32 PM 36.0036 -85.8622 153° Southeast 497 572 33,000 -48 Descending Memphis Center
Tue 03:53:34 PM 35.8794 -85.7853 153° Southeast 495 570 33,000  Level Memphis Center
Tue 03:54:35 PM 35.7561 -85.7083 153° Southeast 497 572 33,000  Level Memphis Center
Tue 03:55:37 PM 35.6333 -85.6328 153° Southeast 497 572 33,000  Level Memphis Center
Tue 03:56:38 PM 35.5119 -85.5583 153° Southeast 494 568 33,000  Level Memphis Center
Tue 03:57:40 PM 35.3911 -85.4781 152° Southeast 495 570 33,000  Level Memphis Center
Tue 03:58:41 PM 35.2722 -85.3939 150° Southeast 496 571 33,000  Level Memphis Center
Tue 03:59:15 PM 35.1981 -85.3453 152° Southeast 497 572 33,000  Level Atlanta Center
Tue 04:00:15 PM 35.0781 -85.2594 150° Southeast 497 572 33,000  Level Atlanta Center
Tue 04:01:15 PM 34.9556 -85.1742 150° Southeast 497 572 33,000  Level Atlanta Center
Tue 04:02:15 PM 34.8375 -85.0917 150° Southeast 497 572 33,000  Level Atlanta Center
Tue 04:03:15 PM 34.7192 -85.0117 151° Southeast 497 572 33,000  Level Atlanta Center
Tue 04:04:15 PM 34.5906 -84.9169 149° Southeast 490 564 33,000  Level Atlanta Center
Tue 04:05:15 PM 34.4700 -84.8375 151° Southeast 490 564 33,000  Level Atlanta Center
Tue 04:06:15 PM 34.3494 -84.7533 150° Southeast 490 564 33,000  Level Atlanta Center
Tue 04:07:15 PM 34.2308 -84.6719 150° Southeast 495 570 33,000  Level Atlanta Center
Tue 04:08:15 PM 34.1206 -84.6008 152° Southeast 495 570 33,000  Level Atlanta Center
Tue 04:09:15 PM 33.9853 -84.5097 151° Southeast 495 570 33,000  Level Atlanta Center
Tue 04:10:15 PM 33.8647 -84.4342 153° Southeast 493 567 33,000  Level Atlanta Center
Tue 04:11:15 PM 33.7458 -84.3636 154° Southeast 487 560 33,000 -200 Level Atlanta Center
Tue 04:12:15 PM 33.6208 -84.2933 155° Southeast 487 560 32,600 -500 Descending Atlanta Center
Tue 04:13:15 PM 33.4997 -84.2231 154° Southeast 482 555 32,000 -300 Descending Atlanta Center
Tue 04:14:15 PM 33.3808 -84.1558 155° Southeast 482 555 32,000  Level Atlanta Center
Tue 04:15:15 PM 33.2619 -84.0861 154° Southeast 482 555 32,000  Level Atlanta Center
Tue 04:16:15 PM 33.1431 -84.0189 155° Southeast 482 555 32,000  Level Atlanta Center
Tue 04:17:15 PM 33.0364 -83.9569 154° Southeast 476 548 32,000  Level Atlanta Center
Tue 04:18:15 PM 32.9175 -83.8853 153° Southeast 476 548 32,000  Level Atlanta Center
Tue 04:19:15 PM 32.7942 -83.8164 155° Southeast 482 555 32,000  Level Atlanta Center
Tue 04:20:15 PM 32.6708 -83.7478 155° Southeast 488 562 32,000  Level Atlanta Center
Tue 04:21:15 PM 32.5475 -83.6792 155° Southeast 488 562 32,000  Level Atlanta Center
Tue 04:22:15 PM 32.4264 -83.6081 154° Southeast 488 562 32,000  Level Atlanta Center
Tue 04:23:15 PM 32.3028 -83.5400 155° Southeast 488 562 32,000  Level Atlanta Center
Tue 04:25:30 PM 32.0300 -83.3850 154° Southeast 481 554 32,000  Level Jacksonville Center
Tue 04:26:30 PM 31.9089 -83.3158 154° Southeast 486 559 32,000  Level Jacksonville Center
Tue 04:27:30 PM 31.7861 -83.2494 155° Southeast 486 559 32,000  Level Jacksonville Center
Tue 04:28:30 PM 31.6650 -83.1856 156° South 481 554 32,000  Level Jacksonville Center
Tue 04:29:30 PM 31.5442 -83.1144 153° Southeast 481 554 32,000  Level Jacksonville Center
Tue 04:30:30 PM 31.4253 -83.0508 155° Southeast 476 548 32,000  Level Jacksonville Center
Tue 04:31:30 PM 31.3042 -82.9850 155° Southeast 476 548 32,000  Level Jacksonville Center
Tue 04:32:30 PM 31.1728 -82.9144 155° Southeast 481 554 32,000  Level Jacksonville Center
Tue 04:38:06 PM 30.4937 -82.5552 155° Southeast 480 552 32,000  Level FlightAware ADS-B
Tue 04:40:57 PM 30.1301 -82.4730 169° South 473 544 32,000  Level FlightAware ADS-B
Tue 04:41:38 PM 30.0371 -82.4534 170° South 473 544 32,000  Level FlightAware ADS-B
Tue 04:42:18 PM 29.9524 -82.4355 170° South 472 543 32,000  Level FlightAware ADS-B
Tue 04:42:58 PM 29.8651 -82.4172 170° South 472 543 32,000 -146 Level FlightAware ADS-B
Tue 04:43:40 PM 29.7754 -82.3982 170° South 471 542 31,800 -1,481 Descending FlightAware ADS-B
Tue 04:44:19 PM 29.6922 -82.3808 170° South 460 529 30,000 -3,259 Descending FlightAware ADS-B
Tue 04:45:01 PM 29.6043 -82.3627 170° South 462 532 27,400 -2,819 Descending FlightAware ADS-B
Tue 04:45:42 PM 29.5225 -82.3520 174° South 461 531 26,100 -1,481 Descending FlightAware ADS-B
Tue 04:46:22 PM 29.4366 -82.3416 174° South 464 534 25,400 -847 Descending FlightAware ADS-B
Tue 04:47:07 PM 29.3365 -82.3296 174° South 466 536 24,900 -809 Descending FlightAware ADS-B
Tue 04:47:51 PM 29.2482 -82.3190 174° South 455 524 24,200 -1,247 Descending FlightAware ADS-B
Tue 04:48:24 PM 29.1793 -82.3109 174° South 453 521 23,300 -2,388 Descending FlightAware ADS-B
Tue 04:49:29 PM 29.0430 -82.2944 174° South 426 490 20,300 -2,660 Descending FlightAware ADS-B
Tue 04:50:10 PM 28.9735 -82.2864 174° South 416 479 18,600 -2,792 Descending FlightAware ADS-B
Tue 04:51:10 PM 28.8481 -82.2720 174° South 430 495 15,600 -2,198 Descending FlightAware ADS-B
Tue 04:53:32 PM 28.5826 -82.2608 178° South 380 437 11,200 -1,811 Descending FlightAware ADS-B
Tue 04:53:59 PM 28.5441 -82.2891 213° Southwest 374 430 10,500 -1,347 Descending FlightAware ADS-B
Tue 04:54:21 PM 28.5260 -82.3259 241° Southwest 371 427 10,100 -233 Descending FlightAware ADS-B
Tue 04:55:42 PM 28.4667 -82.4667 241° Southwest 369 425 10,100  Level Tampa TRACON
Tue 04:56:42 PM 28.4167 -82.5667 240° Southwest 370 426 10,100  Level Tampa TRACON
Tue 04:57:48 PM 28.3500 -82.6667 233° Southwest 311 358 10,100  Level Tampa TRACON
Tue 04:58:48 PM 28.3000 -82.7167 221° Southwest 300 345 10,100 -700 Level Tampa TRACON
Tue 04:59:48 PM 28.2333 -82.7667 213° Southwest 291 335 8,700 -1,579 Descending Tampa TRACON
Tue 05:00:42 PM 28.1667 -82.8000 204° Southwest 277 319 7,100 -1,737 Descending Tampa TRACON
Tue 05:01:42 PM 28.0833 -82.8167 190° South 277 319 5,400 -1,500 Descending Tampa TRACON
Tue 05:02:42 PM 28.0167 -82.8167 180° South 274 315 4,100 -650 Descending Tampa TRACON
Tue 05:03:42 PM 27.9333 -82.8333 190° South 245 282 4,100 -614 Level Tampa TRACON
Tue 05:04:49 PM 27.8667 -82.8500 192° South 245 282 2,800 -902 Descending Tampa TRACON
Tue 05:05:55 PM 27.8333 -82.7833 119° Southeast 215 247 2,100 -384 Descending Tampa TRACON
Tue 05:06:54 PM 27.8167 -82.7167 106° East 215 247 2,000 -500 Descending Tampa TRACON
Tue 05:07:55 PM 27.8500 -82.6833 41° Northeast 136 157 1,100 -793 Descending Tampa TRACON
Tue 05:08:55 PM 27.8833 -82.6833 360° North 122 140 400 -700 Descending Tampa TRACON

Login

Don't have an account? Register now (free) for customized features, flight alerts, and more!